Gooselake, Iowa
Current Conditions -  °F | °C
As of 1:35 PM on Thursday 23 Oct 2014 (Local Time) from KCWI Reporting Station
Overcast Overcast  
Wind Chill: 59°   Ceiling: 2900
Heat Index: 59°   Visibility: 10mi
Dew Point: 45°   Wind: 14mph
Humidity: 59%   Direction: 180°S
Pressure: 30.08"   Gusts: 20mph
Location:  41.9929°N, 90.386°W
Report Text: KCWI 231835Z 18012G17KT 10SM BKN029 OVC050 15/07 A3008 RMK AO1
Loading
Personal Weather Stations






























Interactive Weather Map
Tropical Storm Tracking
New forecast layout! Learn more

10-Day Weather Forecast

Advertisements
Track Severe Weather on mobile